sensor_id;sensor_type;location;lat;lon;timestamp;pressure;altitude;pressure_sealevel;temperature;humidity
72157;BME280;60035;52.122;5.406;2022-10-04T00:00:43;102566.75;;;11.77;89.93
72157;BME280;60035;52.122;5.406;2022-10-04T00:03:27;102569.31;;;11.76;90.23
72157;BME280;60035;52.122;5.406;2022-10-04T00:05:57;102564.19;;;11.76;90.16
72157;BME280;60035;52.122;5.406;2022-10-04T00:08:55;102565.09;;;11.70;90.41
72157;BME280;60035;52.122;5.406;2022-10-04T00:11:24;102566.00;;;11.63;90.09
72157;BME280;60035;52.122;5.406;2022-10-04T00:13:57;102560.84;;;11.64;90.76
72157;BME280;60035;52.122;5.406;2022-10-04T00:16:33;102564.28;;;11.62;90.92
72157;BME280;60035;52.122;5.406;2022-10-04T00:19:26;102579.69;;;11.60;90.88
72157;BME280;60035;52.122;5.406;2022-10-04T00:24:34;102554.03;;;11.59;90.80
72157;BME280;60035;52.122;5.406;2022-10-04T00:27:21;102560.03;;;11.59;90.93
72157;BME280;60035;52.122;5.406;2022-10-04T00:30:13;102549.75;;;11.59;90.96
72157;BME280;60035;52.122;5.406;2022-10-04T00:37:58;102540.38;;;11.57;91.24
72157;BME280;60035;52.122;5.406;2022-10-04T00:40:28;102538.69;;;11.54;91.27
72157;BME280;60035;52.122;5.406;2022-10-04T00:42:59;102536.13;;;11.49;91.55
72157;BME280;60035;52.122;5.406;2022-10-04T00:45:34;102531.00;;;11.51;91.64
72157;BME280;60035;52.122;5.406;2022-10-04T00:48:07;102527.56;;;11.54;91.71
72157;BME280;60035;52.122;5.406;2022-10-04T00:50:43;102524.19;;;11.48;91.70
72157;BME280;60035;52.122;5.406;2022-10-04T00:56:06;102534.41;;;11.52;92.02
72157;BME280;60035;52.122;5.406;2022-10-04T00:58:44;102532.72;;;11.54;91.97
72157;BME280;60035;52.122;5.406;2022-10-04T01:01:11;102535.25;;;11.57;91.68
72157;BME280;60035;52.122;5.406;2022-10-04T01:03:41;102536.94;;;11.59;91.53
72157;BME280;60035;52.122;5.406;2022-10-04T01:06:10;102527.50;;;11.60;91.19
72157;BME280;60035;52.122;5.406;2022-10-04T01:08:44;102521.53;;;11.59;91.35
72157;BME280;60035;52.122;5.406;2022-10-04T01:11:15;102521.53;;;11.61;91.58
72157;BME280;60035;52.122;5.406;2022-10-04T01:16:24;102510.38;;;11.65;91.88
72157;BME280;60035;52.122;5.406;2022-10-04T01:18:52;102512.13;;;11.63;91.85
72157;BME280;60035;52.122;5.406;2022-10-04T01:23:45;102508.66;;;11.65;91.71
72157;BME280;60035;52.122;5.406;2022-10-04T01:29:05;102489.03;;;11.58;91.88
72157;BME280;60035;52.122;5.406;2022-10-04T01:31:36;102489.06;;;11.57;91.96
72157;BME280;60035;52.122;5.406;2022-10-04T01:34:03;102477.94;;;11.56;91.93
72157;BME280;60035;52.122;5.406;2022-10-04T01:36:31;102469.44;;;11.51;92.30
72157;BME280;60035;52.122;5.406;2022-10-04T01:38:59;102468.59;;;11.47;92.32
72157;BME280;60035;52.122;5.406;2022-10-04T01:44:03;102470.31;;;11.45;92.53
72157;BME280;60035;52.122;5.406;2022-10-04T01:46:34;102476.31;;;11.47;92.63
72157;BME280;60035;52.122;5.406;2022-10-04T01:49:04;102474.56;;;11.49;92.52
72157;BME280;60035;52.122;5.406;2022-10-04T01:51:36;102477.97;;;11.52;92.38
72157;BME280;60035;52.122;5.406;2022-10-04T01:54:08;102480.53;;;11.52;92.06
72157;BME280;60035;52.122;5.406;2022-10-04T01:56:47;102468.59;;;11.47;91.80
72157;BME280;60035;52.122;5.406;2022-10-04T01:59:20;102463.50;;;11.43;91.88
72157;BME280;60035;52.122;5.406;2022-10-04T02:04:38;102453.34;;;11.26;92.33
72157;BME280;60035;52.122;5.406;2022-10-04T02:07:11;102437.16;;;11.22;92.44
72157;BME280;60035;52.122;5.406;2022-10-04T02:09:41;102443.13;;;11.16;92.30
72157;BME280;60035;52.122;5.406;2022-10-04T02:12:13;102438.03;;;11.13;92.74
72157;BME280;60035;52.122;5.406;2022-10-04T02:14:47;102432.09;;;11.11;92.49
72157;BME280;60035;52.122;5.406;2022-10-04T02:17:22;102421.03;;;11.05;92.50
72157;BME280;60035;52.122;5.406;2022-10-04T02:19:50;102427.84;;;11.04;92.66
72157;BME280;60035;52.122;5.406;2022-10-04T02:22:18;102421.88;;;11.00;92.46
72157;BME280;60035;52.122;5.406;2022-10-04T02:24:47;102427.03;;;10.97;92.57
72157;BME280;60035;52.122;5.406;2022-10-04T02:27:15;102415.06;;;10.98;92.54
72157;BME280;60035;52.122;5.406;2022-10-04T02:29:41;102400.56;;;10.95;92.34
72157;BME280;60035;52.122;5.406;2022-10-04T02:32:09;102394.59;;;10.93;92.66
72157;BME280;60035;52.122;5.406;2022-10-04T02:34:55;102393.72;;;10.91;92.35
72157;BME280;60035;52.122;5.406;2022-10-04T02:37:25;102391.19;;;10.90;92.22
72157;BME280;60035;52.122;5.406;2022-10-04T02:39:56;102392.91;;;10.86;92.23
72157;BME280;60035;52.122;5.406;2022-10-04T02:45:53;102381.84;;;10.78;92.46
72157;BME280;60035;52.122;5.406;2022-10-04T02:47:58;102382.75;;;10.72;92.39
72157;BME280;60035;52.122;5.406;2022-10-04T02:50:37;102381.06;;;10.70;92.73
72157;BME280;60035;52.122;5.406;2022-10-04T02:56:19;102377.69;;;10.63;92.08
72157;BME280;60035;52.122;5.406;2022-10-04T02:58:47;102376.84;;;10.58;92.63
72157;BME280;60035;52.122;5.406;2022-10-04T03:04:01;102371.72;;;10.52;92.91
72157;BME280;60035;52.122;5.406;2022-10-04T03:06:30;102366.66;;;10.47;92.91
72157;BME280;60035;52.122;5.406;2022-10-04T03:09:01;102364.94;;;10.44;93.21
72157;BME280;60035;52.122;5.406;2022-10-04T03:11:37;102359.84;;;10.43;93.13
72157;BME280;60035;52.122;5.406;2022-10-04T03:14:10;102353.00;;;10.42;93.09
72157;BME280;60035;52.122;5.406;2022-10-04T03:16:42;102360.69;;;10.37;93.51
72157;BME280;60035;52.122;5.406;2022-10-04T03:19:11;102362.41;;;10.33;93.72
72157;BME280;60035;52.122;5.406;2022-10-04T03:21:42;102355.56;;;10.34;93.68
72157;BME280;60035;52.122;5.406;2022-10-04T03:24:16;102340.22;;;10.32;94.00
72157;BME280;60035;52.122;5.406;2022-10-04T03:26:47;102343.63;;;10.30;94.10
72157;BME280;60035;52.122;5.406;2022-10-04T03:29:17;102347.06;;;10.26;93.98
72157;BME280;60035;52.122;5.406;2022-10-04T03:31:49;102336.84;;;10.24;94.06
72157;BME280;60035;52.122;5.406;2022-10-04T03:34:40;102340.25;;;10.22;93.94
72157;BME280;60035;52.122;5.406;2022-10-04T03:37:14;102327.47;;;10.18;94.01
72157;BME280;60035;52.122;5.406;2022-10-04T03:39:44;102335.16;;;10.15;94.34
72157;BME280;60035;52.122;5.406;2022-10-04T03:42:15;102335.16;;;10.14;94.16
72157;BME280;60035;52.122;5.406;2022-10-04T03:44:48;102343.69;;;10.13;94.35
72157;BME280;60035;52.122;5.406;2022-10-04T03:47:26;102342.88;;;10.11;94.40
72157;BME280;60035;52.122;5.406;2022-10-04T03:49:56;102337.75;;;10.11;94.18
72157;BME280;60035;52.122;5.406;2022-10-04T03:52:26;102330.91;;;10.07;93.96
72157;BME280;60035;52.122;5.406;2022-10-04T03:54:59;102330.09;;;10.00;94.01
72157;BME280;60035;52.122;5.406;2022-10-04T03:57:28;102334.38;;;9.95;93.98
72157;BME280;60035;52.122;5.406;2022-10-04T03:59:56;102325.88;;;9.91;94.09
72157;BME280;60035;52.122;5.406;2022-10-04T04:02:33;102319.03;;;9.89;93.86
72157;BME280;60035;52.122;5.406;2022-10-04T04:05:14;102319.88;;;9.88;93.88
72157;BME280;60035;52.122;5.406;2022-10-04T04:08:06;102321.63;;;9.87;93.48
72157;BME280;60035;52.122;5.406;2022-10-04T04:10:38;102325.84;;;9.87;93.22
72157;BME280;60035;52.122;5.406;2022-10-04T04:15:37;102315.69;;;9.71;93.31
72157;BME280;60035;52.122;5.406;2022-10-04T04:18:15;102316.53;;;9.62;93.44
72157;BME280;60035;52.122;5.406;2022-10-04T04:20:44;102316.56;;;9.59;93.76
72157;BME280;60035;52.122;5.406;2022-10-04T04:25:46;102309.72;;;9.58;93.63
72157;BME280;60035;52.122;5.406;2022-10-04T04:30:56;102309.75;;;9.55;93.28
72157;BME280;60035;52.122;5.406;2022-10-04T04:33:28;102300.34;;;9.49;93.41
72157;BME280;60035;52.122;5.406;2022-10-04T04:36:03;102310.63;;;9.43;93.29
72157;BME280;60035;52.122;5.406;2022-10-04T04:38:31;102311.44;;;9.38;93.27
72157;BME280;60035;52.122;5.406;2022-10-04T04:41:09;102311.44;;;9.36;93.55
72157;BME280;60035;52.122;5.406;2022-10-04T04:43:41;102313.19;;;9.34;93.61
72157;BME280;60035;52.122;5.406;2022-10-04T04:46:08;102307.22;;;9.29;93.49
72157;BME280;60035;52.122;5.406;2022-10-04T04:48:57;102303.81;;;9.24;93.67
72157;BME280;60035;52.122;5.406;2022-10-04T04:51:27;102301.22;;;9.21;93.94
72157;BME280;60035;52.122;5.406;2022-10-04T04:54:00;102297.84;;;9.20;94.00
72157;BME280;60035;52.122;5.406;2022-10-04T04:56:29;102294.44;;;9.21;94.06
72157;BME280;60035;52.122;5.406;2022-10-04T04:59:17;102297.84;;;9.20;94.10
72157;BME280;60035;52.122;5.406;2022-10-04T05:01:47;102302.09;;;9.20;94.28
72157;BME280;60035;52.122;5.406;2022-10-04T05:04:23;102298.69;;;9.22;93.92
72157;BME280;60035;52.122;5.406;2022-10-04T05:07:04;102296.97;;;9.23;94.00
72157;BME280;60035;52.122;5.406;2022-10-04T05:09:36;102301.22;;;9.21;93.61
72157;BME280;60035;52.122;5.406;2022-10-04T05:12:08;102301.25;;;9.17;94.21
72157;BME280;60035;52.122;5.406;2022-10-04T05:14:43;102296.13;;;9.17;94.02
72157;BME280;60035;52.122;5.406;2022-10-04T05:17:40;102302.97;;;9.15;93.97
72157;BME280;60035;52.122;5.406;2022-10-04T05:20:06;102300.38;;;9.14;94.32
72157;BME280;60035;52.122;5.406;2022-10-04T05:22:33;102300.38;;;9.14;93.96
72157;BME280;60035;52.122;5.406;2022-10-04T05:25:07;102308.06;;;9.11;94.46
72157;BME280;60035;52.122;5.406;2022-10-04T05:27:39;102304.63;;;9.07;94.45
72157;BME280;60035;52.122;5.406;2022-10-04T05:35:22;102308.91;;;9.11;94.95
72157;BME280;60035;52.122;5.406;2022-10-04T05:38:07;102306.34;;;9.11;94.74
72157;BME280;60035;52.122;5.406;2022-10-04T05:40:46;102310.59;;;9.12;95.16
72157;BME280;60035;52.122;5.406;2022-10-04T05:48:36;102313.16;;;9.20;95.46
72157;BME280;60035;52.122;5.406;2022-10-04T05:51:25;102314.88;;;9.24;95.23
72157;BME280;60035;52.122;5.406;2022-10-04T05:53:54;102314.00;;;9.28;95.23
72157;BME280;60035;52.122;5.406;2022-10-04T06:07:37;102317.44;;;9.38;95.64
72157;BME280;60035;52.122;5.406;2022-10-04T06:24:16;102309.72;;;9.44;95.14
72157;BME280;60035;52.122;5.406;2022-10-04T06:26:58;102323.38;;;9.42;95.16
72157;BME280;60035;52.122;5.406;2022-10-04T06:29:34;102316.56;;;9.39;94.91
72157;BME280;60035;52.122;5.406;2022-10-04T06:35:08;102309.75;;;9.40;95.04
72157;BME280;60035;52.122;5.406;2022-10-04T06:46:00;102301.22;;;9.55;95.31
72157;BME280;60035;52.122;5.406;2022-10-04T06:54:26;102283.25;;;9.86;95.79
72157;BME280;60035;52.122;5.406;2022-10-04T07:02:28;102271.16;;;10.22;95.90
72157;BME280;60035;52.122;5.406;2022-10-04T07:08:17;102260.78;;;10.45;95.88
72157;BME280;60035;52.122;5.406;2022-10-04T07:13:55;102265.81;;;10.63;95.56
72157;BME280;60035;52.122;5.406;2022-10-04T07:16:27;102264.03;;;10.70;95.49
72157;BME280;60035;52.122;5.406;2022-10-04T07:21:52;102266.56;;;10.76;94.97
72157;BME280;60035;52.122;5.406;2022-10-04T07:27:16;102269.91;;;10.88;94.78
72157;BME280;60035;52.122;5.406;2022-10-04T07:29:45;102268.13;;;10.97;94.69
72157;BME280;60035;52.122;5.406;2022-10-04T07:32:37;102270.59;;;11.08;94.33
72157;BME280;60035;52.122;5.406;2022-10-04T07:37:53;102271.28;;;11.27;93.82
72157;BME280;60035;52.122;5.406;2022-10-04T07:40:35;102272.00;;;11.43;93.78
72157;BME280;60035;52.122;5.406;2022-10-04T07:43:12;102275.28;;;11.55;93.43
72157;BME280;60035;52.122;5.406;2022-10-04T07:45:45;102277.72;;;11.65;92.89
72157;BME280;60035;52.122;5.406;2022-10-04T07:48:18;102280.16;;;11.79;92.64
72157;BME280;60035;52.122;5.406;2022-10-04T07:54:01;102268.72;;;12.05;91.25
72157;BME280;60035;52.122;5.406;2022-10-04T07:56:52;102278.84;;;12.19;90.89
72157;BME280;60035;52.122;5.406;2022-10-04T08:04:30;102285.56;;;12.29;89.37
72157;BME280;60035;52.122;5.406;2022-10-04T08:07:15;102286.31;;;12.36;89.04
72157;BME280;60035;52.122;5.406;2022-10-04T08:10:02;102278.53;;;12.42;89.23
72157;BME280;60035;52.122;5.406;2022-10-04T08:12:49;102271.69;;;12.43;88.67
72157;BME280;60035;52.122;5.406;2022-10-04T08:15:37;102260.56;;;12.42;88.46
72157;BME280;60035;52.122;5.406;2022-10-04T08:23:42;102279.66;;;12.80;88.11
72157;BME280;60035;52.122;5.406;2022-10-04T08:26:21;102271.69;;;12.97;87.86
72157;BME280;60035;52.122;5.406;2022-10-04T08:29:13;102273.19;;;13.12;87.45
72157;BME280;60035;52.122;5.406;2022-10-04T08:48:58;102267.13;;;13.63;83.76
72157;BME280;60035;52.122;5.406;2022-10-04T08:54:27;102253.91;;;13.80;82.85
72157;BME280;60035;52.122;5.406;2022-10-04T09:00:03;102264.56;;;14.06;82.49
72157;BME280;60035;52.122;5.406;2022-10-04T09:26:01;102260.22;;;14.85;78.41
72157;BME280;60035;52.122;5.406;2022-10-04T09:29:07;102262.41;;;15.00;78.20
72157;BME280;60035;52.122;5.406;2022-10-04T09:35:06;102245.97;;;15.37;76.59
72157;BME280;60035;52.122;5.406;2022-10-04T09:47:02;102251.56;;;15.53;75.50
72157;BME280;60035;52.122;5.406;2022-10-04T09:49:38;102244.44;;;15.61;75.46
72157;BME280;60035;52.122;5.406;2022-10-04T09:55:20;102242.88;;;15.87;74.52
72157;BME280;60035;52.122;5.406;2022-10-04T10:01:15;102232.00;;;15.74;74.18
72157;BME280;60035;52.122;5.406;2022-10-04T10:04:18;102224.38;;;15.71;74.44
72157;BME280;60035;52.122;5.406;2022-10-04T10:09:47;102231.91;;;16.37;73.03
72157;BME280;60035;52.122;5.406;2022-10-04T10:16:42;102221.47;;;16.94;70.58
72157;BME280;60035;52.122;5.406;2022-10-04T10:20:33;102214.38;;;16.99;70.38
72157;BME280;60035;52.122;5.406;2022-10-04T10:33:59;102243.03;;;17.43;69.84
72157;BME280;60035;52.122;5.406;2022-10-04T10:36:47;102232.66;;;17.43;68.80
72157;BME280;60035;52.122;5.406;2022-10-04T10:39:42;102222.75;;;17.31;68.66
72157;BME280;60035;52.122;5.406;2022-10-04T11:03:18;102207.25;;;18.23;65.93
72157;BME280;60035;52.122;5.406;2022-10-04T11:06:06;102199.03;;;18.34;64.42
72157;BME280;60035;52.122;5.406;2022-10-04T11:11:31;102202.09;;;18.43;64.86
72157;BME280;60035;52.122;5.406;2022-10-04T11:23:10;102187.91;;;18.73;62.53
72157;BME280;60035;52.122;5.406;2022-10-04T11:28:34;102181.25;;;18.67;61.95
72157;BME280;60035;52.122;5.406;2022-10-04T11:34:16;102184.22;;;18.58;62.13
72157;BME280;60035;52.122;5.406;2022-10-04T11:42:36;102168.28;;;18.67;60.27
72157;BME280;60035;52.122;5.406;2022-10-04T11:51:10;102172.09;;;18.58;61.05
72157;BME280;60035;52.122;5.406;2022-10-04T11:56:42;102165.78;;;18.64;60.96
72157;BME280;60035;52.122;5.406;2022-10-04T12:01:57;102166.31;;;18.72;60.30
72157;BME280;60035;52.122;5.406;2022-10-04T12:05:06;102163.25;;;18.83;61.69
72157;BME280;60035;52.122;5.406;2022-10-04T12:07:47;102159.25;;;19.15;60.36
72157;BME280;60035;52.122;5.406;2022-10-04T12:10:23;102160.34;;;19.30;59.72
72157;BME280;60035;52.122;5.406;2022-10-04T12:15:46;102160.38;;;19.10;58.55
72157;BME280;60035;52.122;5.406;2022-10-04T12:29:40;102127.09;;;18.59;60.02
72157;BME280;60035;52.122;5.406;2022-10-04T12:35:26;102125.09;;;19.06;59.67
72157;BME280;60035;52.122;5.406;2022-10-04T12:54:42;102105.22;;;19.98;56.66
72157;BME280;60035;52.122;5.406;2022-10-04T12:57:31;102102.75;;;20.13;56.71
72157;BME280;60035;52.122;5.406;2022-10-04T13:00:05;102092.56;;;19.91;55.72
72157;BME280;60035;52.122;5.406;2022-10-04T13:03:10;102092.53;;;19.73;55.29
72157;BME280;60035;52.122;5.406;2022-10-04T13:06:18;102095.63;;;19.81;55.22
72157;BME280;60035;52.122;5.406;2022-10-04T13:11:51;102093.28;;;19.94;54.49
72157;BME280;60035;52.122;5.406;2022-10-04T13:14:28;102089.41;;;20.03;55.20
72157;BME280;60035;52.122;5.406;2022-10-04T13:20:36;102083.41;;;20.01;54.15
72157;BME280;60035;52.122;5.406;2022-10-04T13:31:23;102084.94;;;20.23;54.21
72157;BME280;60035;52.122;5.406;2022-10-04T13:34:15;102079.66;;;20.42;54.98
72157;BME280;60035;52.122;5.406;2022-10-04T13:45:14;102035.50;;;21.22;51.51
72157;BME280;60035;52.122;5.406;2022-10-04T13:51:18;102026.59;;;21.26;51.92
72157;BME280;60035;52.122;5.406;2022-10-04T13:54:09;102020.28;;;21.14;51.65
72157;BME280;60035;52.122;5.406;2022-10-04T13:57:20;102019.56;;;21.12;52.01
72157;BME280;60035;52.122;5.406;2022-10-04T13:59:52;102006.78;;;21.07;51.99
72157;BME280;60035;52.122;5.406;2022-10-04T14:17:17;102011.50;;;20.35;54.08
72157;BME280;60035;52.122;5.406;2022-10-04T14:23:05;102013.38;;;20.65;54.47
72157;BME280;60035;52.122;5.406;2022-10-04T14:26:07;102013.44;;;20.47;54.51
72157;BME280;60035;52.122;5.406;2022-10-04T14:45:26;102008.22;;;19.79;57.73
72157;BME280;60035;52.122;5.406;2022-10-04T14:48:23;102013.66;;;19.74;57.51
72157;BME280;60035;52.122;5.406;2022-10-04T14:54:09;102008.63;;;19.71;58.55
72157;BME280;60035;52.122;5.406;2022-10-04T14:57:06;102019.00;;;19.71;58.81
72157;BME280;60035;52.122;5.406;2022-10-04T15:00:03;102025.13;;;19.70;58.93
72157;BME280;60035;52.122;5.406;2022-10-04T15:11:07;102032.09;;;19.33;59.01
72157;BME280;60035;52.122;5.406;2022-10-04T15:13:56;102024.13;;;19.19;59.63
72157;BME280;60035;52.122;5.406;2022-10-04T15:37:17;102012.97;;;18.39;62.96
72157;BME280;60035;52.122;5.406;2022-10-04T15:43:15;102022.91;;;18.29;64.14
72157;BME280;60035;52.122;5.406;2022-10-04T15:45:58;102018.63;;;18.28;64.28
72157;BME280;60035;52.122;5.406;2022-10-04T15:54:37;102007.53;;;18.24;64.81
72157;BME280;60035;52.122;5.406;2022-10-04T16:00:03;102009.50;;;18.19;65.47
72157;BME280;60035;52.122;5.406;2022-10-04T16:02:50;102008.56;;;18.20;65.57
72157;BME280;60035;52.122;5.406;2022-10-04T16:05:43;102002.75;;;18.15;65.63
72157;BME280;60035;52.122;5.406;2022-10-04T16:08:27;102008.94;;;18.12;66.05
72157;BME280;60035;52.122;5.406;2022-10-04T16:11:08;102019.41;;;18.09;66.35
72157;BME280;60035;52.122;5.406;2022-10-04T16:19:02;102017.28;;;17.98;67.00
72157;BME280;60035;52.122;5.406;2022-10-04T16:29:27;102021.41;;;17.82;67.99
72157;BME280;60035;52.122;5.406;2022-10-04T16:42:44;102023.53;;;17.28;69.72
72157;BME280;60035;52.122;5.406;2022-10-04T16:48:25;102031.59;;;17.20;70.42
72157;BME280;60035;52.122;5.406;2022-10-04T16:54:34;102026.09;;;17.06;71.00
72157;BME280;60035;52.122;5.406;2022-10-04T16:57:13;102047.03;;;16.99;71.25
72157;BME280;60035;52.122;5.406;2022-10-04T16:59:45;102039.47;;;16.93;71.74
72157;BME280;60035;52.122;5.406;2022-10-04T17:02:50;102039.59;;;16.90;72.09
72157;BME280;60035;52.122;5.406;2022-10-04T17:13:23;102036.81;;;16.71;72.98
72157;BME280;60035;52.122;5.406;2022-10-04T17:16:11;102036.16;;;16.66;73.09
72157;BME280;60035;52.122;5.406;2022-10-04T17:21:35;102036.16;;;16.66;73.11
72157;BME280;60035;52.122;5.406;2022-10-04T17:32:02;102029.47;;;16.60;73.79
72157;BME280;60035;52.122;5.406;2022-10-04T17:34:49;102041.66;;;16.57;73.97
72157;BME280;60035;52.122;5.406;2022-10-04T17:42:45;102024.66;;;16.49;74.10
72157;BME280;60035;52.122;5.406;2022-10-04T17:45:42;102022.97;;;16.48;74.29
72157;BME280;60035;52.122;5.406;2022-10-04T17:54:13;102036.06;;;16.44;74.85
72157;BME280;60035;52.122;5.406;2022-10-04T17:59:38;102036.22;;;16.39;75.04
72157;BME280;60035;52.122;5.406;2022-10-04T18:05:01;102040.53;;;16.39;75.34
72157;BME280;60035;52.122;5.406;2022-10-04T18:07:40;102025.97;;;16.36;75.44
72157;BME280;60035;52.122;5.406;2022-10-04T18:10:26;102027.84;;;16.32;75.48
72157;BME280;60035;52.122;5.406;2022-10-04T18:13:01;102015.81;;;16.31;75.56
72157;BME280;60035;52.122;5.406;2022-10-04T18:15:35;102010.66;;;16.31;75.49
72157;BME280;60035;52.122;5.406;2022-10-04T18:20:44;102021.88;;;16.30;75.90
72157;BME280;60035;52.122;5.406;2022-10-04T18:23:15;102026.22;;;16.30;75.87
72157;BME280;60035;52.122;5.406;2022-10-04T18:25:44;102028.81;;;16.28;76.06
72157;BME280;60035;52.122;5.406;2022-10-04T18:28:19;102034.81;;;16.30;76.00
72157;BME280;60035;52.122;5.406;2022-10-04T18:30:57;102026.22;;;16.30;76.12
72157;BME280;60035;52.122;5.406;2022-10-04T18:33:30;102025.34;;;16.29;76.13
72157;BME280;60035;52.122;5.406;2022-10-04T18:36:15;102032.31;;;16.27;76.13
72157;BME280;60035;52.122;5.406;2022-10-04T18:38:45;102028.06;;;16.26;76.37
72157;BME280;60035;52.122;5.406;2022-10-04T18:46:23;102025.59;;;16.23;76.39
72157;BME280;60035;52.122;5.406;2022-10-04T18:48:53;102028.09;;;16.25;76.23
72157;BME280;60035;52.122;5.406;2022-10-04T18:53:54;102022.19;;;16.21;76.77
72157;BME280;60035;52.122;5.406;2022-10-04T18:56:26;102025.66;;;16.20;76.89
72157;BME280;60035;52.122;5.406;2022-10-04T19:02:21;102019.72;;;16.18;77.01
72157;BME280;60035;52.122;5.406;2022-10-04T19:08:43;102008.63;;;16.14;77.23
72157;BME280;60035;52.122;5.406;2022-10-04T19:11:09;101995.84;;;16.11;77.47
72157;BME280;60035;52.122;5.406;2022-10-04T19:16:58;101975.19;;;16.10;77.52
72157;BME280;60035;52.122;5.406;2022-10-04T19:19:36;101973.47;;;16.10;77.65
72157;BME280;60035;52.122;5.406;2022-10-04T19:30:19;101957.34;;;16.04;77.81
72157;BME280;60035;52.122;5.406;2022-10-04T19:46:59;101963.53;;;15.98;78.13
72157;BME280;60035;52.122;5.406;2022-10-04T19:49:51;101960.19;;;15.96;78.27
72157;BME280;60035;52.122;5.406;2022-10-04T19:52:41;101955.06;;;15.94;78.28
72157;BME280;60035;52.122;5.406;2022-10-04T19:55:22;101963.66;;;15.95;78.23
72157;BME280;60035;52.122;5.406;2022-10-04T19:58:21;101965.34;;;15.96;78.08
72157;BME280;60035;52.122;5.406;2022-10-04T20:00:50;101969.66;;;15.95;77.98
72157;BME280;60035;52.122;5.406;2022-10-04T20:03:16;101971.41;;;15.95;78.06
72157;BME280;60035;52.122;5.406;2022-10-04T20:05:47;101972.28;;;15.94;78.14
72157;BME280;60035;52.122;5.406;2022-10-04T20:11:20;101972.41;;;15.91;78.41
72157;BME280;60035;52.122;5.406;2022-10-04T20:19:18;101975.88;;;15.90;78.45
72157;BME280;60035;52.122;5.406;2022-10-04T20:21:45;101973.34;;;15.88;78.45
72157;BME280;60035;52.122;5.406;2022-10-04T20:24:16;101977.72;;;15.86;78.39
72157;BME280;60035;52.122;5.406;2022-10-04T20:26:44;101978.56;;;15.87;78.48
72157;BME280;60035;52.122;5.406;2022-10-04T20:32:06;101975.25;;;15.83;78.41
72157;BME280;60035;52.122;5.406;2022-10-04T20:34:47;101974.41;;;15.82;78.69
72157;BME280;60035;52.122;5.406;2022-10-04T20:37:14;101966.72;;;15.81;78.52
72157;BME280;60035;52.122;5.406;2022-10-04T20:44:50;101967.63;;;15.78;78.59
72157;BME280;60035;52.122;5.406;2022-10-04T20:50:00;101978.91;;;15.76;78.64
72157;BME280;60035;52.122;5.406;2022-10-04T20:52:29;101974.56;;;15.76;78.69
72157;BME280;60035;52.122;5.406;2022-10-04T20:54:58;101979.75;;;15.76;78.64
72157;BME280;60035;52.122;5.406;2022-10-04T20:57:29;101977.22;;;15.75;78.69
72157;BME280;60035;52.122;5.406;2022-10-04T20:59:56;101986.69;;;15.74;78.58
72157;BME280;60035;52.122;5.406;2022-10-04T21:02:24;101985.00;;;15.73;78.69
72157;BME280;60035;52.122;5.406;2022-10-04T21:04:53;101984.09;;;15.74;78.64
72157;BME280;60035;52.122;5.406;2022-10-04T21:07:24;101990.19;;;15.73;78.57
72157;BME280;60035;52.122;5.406;2022-10-04T21:09:52;101985.06;;;15.72;78.69
72157;BME280;60035;52.122;5.406;2022-10-04T21:12:45;102002.28;;;15.71;78.76
72157;BME280;60035;52.122;5.406;2022-10-04T21:17:42;101994.59;;;15.70;78.70
72157;BME280;60035;52.122;5.406;2022-10-04T21:20:13;101991.13;;;15.71;78.58
72157;BME280;60035;52.122;5.406;2022-10-04T21:22:40;101990.25;;;15.70;78.81
72157;BME280;60035;52.122;5.406;2022-10-04T21:25:27;101997.97;;;15.72;78.72
72157;BME280;60035;52.122;5.406;2022-10-04T21:28:51;102001.44;;;15.71;78.79
72157;BME280;60035;52.122;5.406;2022-10-04T21:31:08;102004.88;;;15.71;78.65
72157;BME280;60035;52.122;5.406;2022-10-04T21:33:34;102005.75;;;15.70;78.84
72157;BME280;60035;52.122;5.406;2022-10-04T21:36:02;102003.16;;;15.70;79.00
72157;BME280;60035;52.122;5.406;2022-10-04T21:38:29;102004.09;;;15.69;78.83
72157;BME280;60035;52.122;5.406;2022-10-04T21:40:56;102004.09;;;15.69;78.86
72157;BME280;60035;52.122;5.406;2022-10-04T21:43:23;102003.16;;;15.70;78.89
72157;BME280;60035;52.122;5.406;2022-10-04T21:45:50;102003.16;;;15.70;79.13
72157;BME280;60035;52.122;5.406;2022-10-04T21:48:17;101995.41;;;15.70;78.89
72157;BME280;60035;52.122;5.406;2022-10-04T21:50:47;101991.13;;;15.71;78.82
72157;BME280;60035;52.122;5.406;2022-10-04T21:53:14;101978.22;;;15.71;78.72
72157;BME280;60035;52.122;5.406;2022-10-04T21:55:40;101982.50;;;15.70;78.81
72157;BME280;60035;52.122;5.406;2022-10-04T21:58:07;101987.66;;;15.72;78.70
72157;BME280;60035;52.122;5.406;2022-10-04T22:00:33;101988.53;;;15.71;78.77
72157;BME280;60035;52.122;5.406;2022-10-04T22:03:00;101978.22;;;15.71;78.76
72157;BME280;60035;52.122;5.406;2022-10-04T22:05:26;101973.88;;;15.71;79.00
72157;BME280;60035;52.122;5.406;2022-10-04T22:07:53;101979.09;;;15.70;79.31
72157;BME280;60035;52.122;5.406;2022-10-04T22:10:19;101972.25;;;15.69;79.12
72157;BME280;60035;52.122;5.406;2022-10-04T22:12:45;101973.09;;;15.69;79.01
72157;BME280;60035;52.122;5.406;2022-10-04T22:15:12;101975.72;;;15.68;79.19
72157;BME280;60035;52.122;5.406;2022-10-04T22:17:39;101979.22;;;15.66;79.25
72157;BME280;60035;52.122;5.406;2022-10-04T22:20:05;101969.72;;;15.67;79.32
72157;BME280;60035;52.122;5.406;2022-10-04T22:22:32;101960.31;;;15.64;79.36
72157;BME280;60035;52.122;5.406;2022-10-04T22:25:13;101955.22;;;15.63;79.37
72157;BME280;60035;52.122;5.406;2022-10-04T22:27:40;101955.28;;;15.61;79.71
72157;BME280;60035;52.122;5.406;2022-10-04T22:30:16;101947.59;;;15.60;79.69
72157;BME280;60035;52.122;5.406;2022-10-04T22:32:43;101944.13;;;15.59;79.68
72157;BME280;60035;52.122;5.406;2022-10-04T22:35:17;101939.09;;;15.56;79.76